sensor_id;sensor_type;location;lat;lon;timestamp;temperature;humidity
64961;SHT31;51487;52.266;10.542;2024-01-27T00:01:45;5.64;86.08
64961;SHT31;51487;52.266;10.542;2024-01-27T00:04:10;5.68;85.80
64961;SHT31;51487;52.266;10.542;2024-01-27T00:06:36;5.67;85.71
64961;SHT31;51487;52.266;10.542;2024-01-27T00:09:02;5.61;85.57
64961;SHT31;51487;52.266;10.542;2024-01-27T00:11:31;5.54;85.65
64961;SHT31;51487;52.266;10.542;2024-01-27T00:14:00;5.65;85.24
64961;SHT31;51487;52.266;10.542;2024-01-27T00:16:26;5.71;85.00
64961;SHT31;51487;52.266;10.542;2024-01-27T00:18:53;5.74;85.05
64961;SHT31;51487;52.266;10.542;2024-01-27T00:21:18;5.74;84.93
64961;SHT31;51487;52.266;10.542;2024-01-27T00:23:44;5.78;84.69
64961;SHT31;51487;52.266;10.542;2024-01-27T00:26:09;5.67;84.66
64961;SHT31;51487;52.266;10.542;2024-01-27T00:28:36;5.81;84.47
64961;SHT31;51487;52.266;10.542;2024-01-27T00:31:02;5.78;84.60
64961;SHT31;51487;52.266;10.542;2024-01-27T00:33:27;5.77;84.81
64961;SHT31;51487;52.266;10.542;2024-01-27T00:35:53;5.78;84.40
64961;SHT31;51487;52.266;10.542;2024-01-27T00:38:19;5.81;84.59
64961;SHT31;51487;52.266;10.542;2024-01-27T00:40:44;5.79;84.53
64961;SHT31;51487;52.266;10.542;2024-01-27T00:43:10;5.67;84.75
64961;SHT31;51487;52.266;10.542;2024-01-27T00:45:36;5.72;84.75
64961;SHT31;51487;52.266;10.542;2024-01-27T00:48:01;5.67;84.83
64961;SHT31;51487;52.266;10.542;2024-01-27T00:50:27;5.67;85.00
64961;SHT31;51487;52.266;10.542;2024-01-27T00:52:53;5.74;85.11
64961;SHT31;51487;52.266;10.542;2024-01-27T00:55:18;5.61;85.41
64961;SHT31;51487;52.266;10.542;2024-01-27T00:57:44;5.62;85.44
64961;SHT31;51487;52.266;10.542;2024-01-27T01:00:11;5.70;85.67
64961;SHT31;51487;52.266;10.542;2024-01-27T01:02:37;5.64;86.01
64961;SHT31;51487;52.266;10.542;2024-01-27T01:05:04;5.60;86.08
64961;SHT31;51487;52.266;10.542;2024-01-27T01:07:30;5.55;86.18
64961;SHT31;51487;52.266;10.542;2024-01-27T01:09:56;5.58;86.13
64961;SHT31;51487;52.266;10.542;2024-01-27T01:12:22;5.48;86.62
64961;SHT31;51487;52.266;10.542;2024-01-27T01:14:47;5.51;86.72
64961;SHT31;51487;52.266;10.542;2024-01-27T01:17:13;5.46;86.97
64961;SHT31;51487;52.266;10.542;2024-01-27T01:19:39;5.39;86.94
64961;SHT31;51487;52.266;10.542;2024-01-27T01:22:05;5.26;87.18
64961;SHT31;51487;52.266;10.542;2024-01-27T01:24:31;5.27;87.28
64961;SHT31;51487;52.266;10.542;2024-01-27T01:26:56;5.23;87.40
64961;SHT31;51487;52.266;10.542;2024-01-27T01:29:22;5.26;87.44
64961;SHT31;51487;52.266;10.542;2024-01-27T01:31:48;5.20;87.53
64961;SHT31;51487;52.266;10.542;2024-01-27T01:34:14;5.23;87.65
64961;SHT31;51487;52.266;10.542;2024-01-27T01:36:39;5.16;87.60
64961;SHT31;51487;52.266;10.542;2024-01-27T01:39:06;5.10;87.98
64961;SHT31;51487;52.266;10.542;2024-01-27T01:41:32;5.08;87.88
64961;SHT31;51487;52.266;10.542;2024-01-27T01:43:58;5.08;88.25
64961;SHT31;51487;52.266;10.542;2024-01-27T01:46:24;5.03;88.12
64961;SHT31;51487;52.266;10.542;2024-01-27T01:48:50;5.06;88.39
64961;SHT31;51487;52.266;10.542;2024-01-27T01:51:16;5.05;88.49
64961;SHT31;51487;52.266;10.542;2024-01-27T01:53:44;5.02;88.48
64961;SHT31;51487;52.266;10.542;2024-01-27T01:56:15;5.02;88.58
64961;SHT31;51487;52.266;10.542;2024-01-27T01:58:41;5.09;88.59
64961;SHT31;51487;52.266;10.542;2024-01-27T02:01:07;5.15;88.42
64961;SHT31;51487;52.266;10.542;2024-01-27T02:03:33;5.19;88.49
64961;SHT31;51487;52.266;10.542;2024-01-27T02:05:58;5.16;88.59
64961;SHT31;51487;52.266;10.542;2024-01-27T02:08:24;5.20;88.59
64961;SHT31;51487;52.266;10.542;2024-01-27T02:10:49;5.30;88.48
64961;SHT31;51487;52.266;10.542;2024-01-27T02:13:21;5.47;88.20
64961;SHT31;51487;52.266;10.542;2024-01-27T02:15:48;5.43;88.21
64961;SHT31;51487;52.266;10.542;2024-01-27T02:18:14;5.47;88.14
64961;SHT31;51487;52.266;10.542;2024-01-27T02:20:40;5.52;88.19
64961;SHT31;51487;52.266;10.542;2024-01-27T02:23:06;5.54;88.24
64961;SHT31;51487;52.266;10.542;2024-01-27T02:25:32;5.57;88.42
64961;SHT31;51487;52.266;10.542;2024-01-27T02:27:58;5.51;88.57
64961;SHT31;51487;52.266;10.542;2024-01-27T02:30:24;5.60;88.58
64961;SHT31;51487;52.266;10.542;2024-01-27T02:32:53;5.67;88.44
64961;SHT31;51487;52.266;10.542;2024-01-27T02:35:19;5.64;88.69
64961;SHT31;51487;52.266;10.542;2024-01-27T02:37:44;5.58;88.78
64961;SHT31;51487;52.266;10.542;2024-01-27T02:40:10;5.67;88.54
64961;SHT31;51487;52.266;10.542;2024-01-27T02:42:37;5.75;88.49
64961;SHT31;51487;52.266;10.542;2024-01-27T02:45:04;5.54;89.04
64961;SHT31;51487;52.266;10.542;2024-01-27T02:47:29;5.62;88.90
64961;SHT31;51487;52.266;10.542;2024-01-27T02:49:55;5.62;88.68
64961;SHT31;51487;52.266;10.542;2024-01-27T02:52:21;5.58;88.90
64961;SHT31;51487;52.266;10.542;2024-01-27T02:54:47;5.61;88.75
64961;SHT31;51487;52.266;10.542;2024-01-27T02:57:13;5.61;88.87
64961;SHT31;51487;52.266;10.542;2024-01-27T02:59:41;5.65;88.82
64961;SHT31;51487;52.266;10.542;2024-01-27T03:02:06;5.67;88.40
64961;SHT31;51487;52.266;10.542;2024-01-27T03:04:32;5.68;88.55
64961;SHT31;51487;52.266;10.542;2024-01-27T03:06:57;5.70;88.53
64961;SHT31;51487;52.266;10.542;2024-01-27T03:09:23;5.44;89.14
64961;SHT31;51487;52.266;10.542;2024-01-27T03:11:48;5.51;88.88
64961;SHT31;51487;52.266;10.542;2024-01-27T03:14:14;5.37;89.10
64961;SHT31;51487;52.266;10.542;2024-01-27T03:16:39;5.41;89.14
64961;SHT31;51487;52.266;10.542;2024-01-27T03:19:05;5.39;89.27
64961;SHT31;51487;52.266;10.542;2024-01-27T03:21:31;5.50;88.98
64961;SHT31;51487;52.266;10.542;2024-01-27T03:23:57;5.52;88.85
64961;SHT31;51487;52.266;10.542;2024-01-27T03:26:22;5.60;88.70
64961;SHT31;51487;52.266;10.542;2024-01-27T03:28:48;5.39;89.01
64961;SHT31;51487;52.266;10.542;2024-01-27T03:31:13;5.34;89.17
64961;SHT31;51487;52.266;10.542;2024-01-27T03:33:39;5.34;89.22
64961;SHT31;51487;52.266;10.542;2024-01-27T03:36:10;5.39;89.01
64961;SHT31;51487;52.266;10.542;2024-01-27T03:38:37;5.39;88.96
64961;SHT31;51487;52.266;10.542;2024-01-27T03:41:04;5.36;89.01
64961;SHT31;51487;52.266;10.542;2024-01-27T03:43:30;5.27;89.33
64961;SHT31;51487;52.266;10.542;2024-01-27T03:45:57;5.24;89.16
64961;SHT31;51487;52.266;10.542;2024-01-27T03:48:23;5.23;89.30
64961;SHT31;51487;52.266;10.542;2024-01-27T03:50:48;5.15;89.23
64961;SHT31;51487;52.266;10.542;2024-01-27T03:53:14;5.13;89.61
64961;SHT31;51487;52.266;10.542;2024-01-27T03:55:39;5.06;89.57
64961;SHT31;51487;52.266;10.542;2024-01-27T03:58:11;4.99;89.67
64961;SHT31;51487;52.266;10.542;2024-01-27T04:00:36;4.82;90.29
64961;SHT31;51487;52.266;10.542;2024-01-27T04:03:02;4.83;90.36
64961;SHT31;51487;52.266;10.542;2024-01-27T04:05:29;4.72;90.43
64961;SHT31;51487;52.266;10.542;2024-01-27T04:07:55;4.60;90.56
64961;SHT31;51487;52.266;10.542;2024-01-27T04:10:22;4.64;90.63
64961;SHT31;51487;52.266;10.542;2024-01-27T04:12:49;4.61;90.85
64961;SHT31;51487;52.266;10.542;2024-01-27T04:15:14;4.45;91.07
64961;SHT31;51487;52.266;10.542;2024-01-27T04:17:41;4.44;91.37
64961;SHT31;51487;52.266;10.542;2024-01-27T04:20:10;4.45;91.32
64961;SHT31;51487;52.266;10.542;2024-01-27T04:22:36;4.42;91.40
64961;SHT31;51487;52.266;10.542;2024-01-27T04:25:02;4.44;91.48
64961;SHT31;51487;52.266;10.542;2024-01-27T04:27:29;4.42;91.51
64961;SHT31;51487;52.266;10.542;2024-01-27T04:29:58;4.48;91.38
64961;SHT31;51487;52.266;10.542;2024-01-27T04:32:26;4.44;91.34
64961;SHT31;51487;52.266;10.542;2024-01-27T04:34:52;4.44;91.45
64961;SHT31;51487;52.266;10.542;2024-01-27T04:37:18;4.48;91.15
64961;SHT31;51487;52.266;10.542;2024-01-27T04:39:43;4.38;91.11
64961;SHT31;51487;52.266;10.542;2024-01-27T04:42:09;4.37;91.34
64961;SHT31;51487;52.266;10.542;2024-01-27T04:44:35;4.31;91.59
64961;SHT31;51487;52.266;10.542;2024-01-27T04:47:00;4.25;91.56
64961;SHT31;51487;52.266;10.542;2024-01-27T04:49:27;4.23;91.68
64961;SHT31;51487;52.266;10.542;2024-01-27T04:52:00;4.18;92.00
64961;SHT31;51487;52.266;10.542;2024-01-27T04:54:25;4.16;92.02
64961;SHT31;51487;52.266;10.542;2024-01-27T04:56:51;4.10;92.18
64961;SHT31;51487;52.266;10.542;2024-01-27T04:59:16;4.11;92.10
64961;SHT31;51487;52.266;10.542;2024-01-27T05:01:46;4.11;92.09
64961;SHT31;51487;52.266;10.542;2024-01-27T05:04:12;4.04;92.61
64961;SHT31;51487;52.266;10.542;2024-01-27T05:06:38;4.06;92.52
64961;SHT31;51487;52.266;10.542;2024-01-27T05:09:06;3.96;92.65
64961;SHT31;51487;52.266;10.542;2024-01-27T05:11:33;4.03;92.45
64961;SHT31;51487;52.266;10.542;2024-01-27T05:14:00;4.03;92.41
64961;SHT31;51487;52.266;10.542;2024-01-27T05:16:26;3.99;92.40
64961;SHT31;51487;52.266;10.542;2024-01-27T05:18:51;3.97;92.43
64961;SHT31;51487;52.266;10.542;2024-01-27T05:21:17;4.04;92.42
64961;SHT31;51487;52.266;10.542;2024-01-27T05:23:42;3.99;92.48
64961;SHT31;51487;52.266;10.542;2024-01-27T05:26:08;4.02;92.53
64961;SHT31;51487;52.266;10.542;2024-01-27T05:28:37;4.03;92.29
64961;SHT31;51487;52.266;10.542;2024-01-27T05:31:03;4.00;92.37
64961;SHT31;51487;52.266;10.542;2024-01-27T05:33:31;3.99;92.27
64961;SHT31;51487;52.266;10.542;2024-01-27T05:35:57;3.92;92.32
64961;SHT31;51487;52.266;10.542;2024-01-27T05:38:24;3.89;92.41
64961;SHT31;51487;52.266;10.542;2024-01-27T05:40:51;3.81;92.74
64961;SHT31;51487;52.266;10.542;2024-01-27T05:43:17;3.92;92.45
64961;SHT31;51487;52.266;10.542;2024-01-27T05:45:42;3.97;92.20
64961;SHT31;51487;52.266;10.542;2024-01-27T05:48:08;3.85;92.55
64961;SHT31;51487;52.266;10.542;2024-01-27T05:50:33;3.87;92.45
64961;SHT31;51487;52.266;10.542;2024-01-27T05:53:01;3.85;92.43
64961;SHT31;51487;52.266;10.542;2024-01-27T05:55:26;3.86;92.30
64961;SHT31;51487;52.266;10.542;2024-01-27T05:57:52;3.82;92.64
64961;SHT31;51487;52.266;10.542;2024-01-27T06:00:17;3.89;92.30
64961;SHT31;51487;52.266;10.542;2024-01-27T06:02:43;3.79;92.35
64961;SHT31;51487;52.266;10.542;2024-01-27T06:05:09;3.79;92.42
64961;SHT31;51487;52.266;10.542;2024-01-27T06:07:38;3.75;92.61
64961;SHT31;51487;52.266;10.542;2024-01-27T06:10:07;3.83;92.32
64961;SHT31;51487;52.266;10.542;2024-01-27T06:12:33;3.83;91.98
64961;SHT31;51487;52.266;10.542;2024-01-27T06:14:58;3.83;91.95
64961;SHT31;51487;52.266;10.542;2024-01-27T06:17:24;3.85;92.06
64961;SHT31;51487;52.266;10.542;2024-01-27T06:19:49;3.79;92.07
64961;SHT31;51487;52.266;10.542;2024-01-27T06:22:15;3.76;92.24
64961;SHT31;51487;52.266;10.542;2024-01-27T06:24:44;3.85;92.00
64961;SHT31;51487;52.266;10.542;2024-01-27T06:27:10;3.83;91.75
64961;SHT31;51487;52.266;10.542;2024-01-27T06:29:36;3.86;91.82
64961;SHT31;51487;52.266;10.542;2024-01-27T06:32:02;3.86;91.63
64961;SHT31;51487;52.266;10.542;2024-01-27T06:34:27;3.78;91.86
64961;SHT31;51487;52.266;10.542;2024-01-27T06:36:53;3.86;91.86
64961;SHT31;51487;52.266;10.542;2024-01-27T06:39:18;3.87;91.59
64961;SHT31;51487;52.266;10.542;2024-01-27T06:41:44;3.72;91.92
64961;SHT31;51487;52.266;10.542;2024-01-27T06:44:09;3.78;91.64
64961;SHT31;51487;52.266;10.542;2024-01-27T06:46:35;3.69;91.90
64961;SHT31;51487;52.266;10.542;2024-01-27T06:49:00;3.66;92.26
64961;SHT31;51487;52.266;10.542;2024-01-27T06:51:27;3.65;92.21
64961;SHT31;51487;52.266;10.542;2024-01-27T06:53:52;3.76;91.83
64961;SHT31;51487;52.266;10.542;2024-01-27T06:56:18;3.69;91.83
64961;SHT31;51487;52.266;10.542;2024-01-27T06:58:43;3.69;91.77
64961;SHT31;51487;52.266;10.542;2024-01-27T07:01:09;3.66;92.07
64961;SHT31;51487;52.266;10.542;2024-01-27T07:03:34;3.66;91.79
64961;SHT31;51487;52.266;10.542;2024-01-27T07:06:00;3.71;91.93
64961;SHT31;51487;52.266;10.542;2024-01-27T07:08:28;3.69;91.57
64961;SHT31;51487;52.266;10.542;2024-01-27T07:10:54;3.66;91.76
64961;SHT31;51487;52.266;10.542;2024-01-27T07:13:20;3.71;92.10
64961;SHT31;51487;52.266;10.542;2024-01-27T07:15:46;3.73;91.35
64961;SHT31;51487;52.266;10.542;2024-01-27T07:18:11;3.69;91.28
64961;SHT31;51487;52.266;10.542;2024-01-27T07:20:37;3.79;91.24
64961;SHT31;51487;52.266;10.542;2024-01-27T07:23:02;3.81;91.18
64961;SHT31;51487;52.266;10.542;2024-01-27T07:25:28;3.81;91.40
64961;SHT31;51487;52.266;10.542;2024-01-27T07:27:54;3.83;90.96
64961;SHT31;51487;52.266;10.542;2024-01-27T07:30:20;3.78;91.12
64961;SHT31;51487;52.266;10.542;2024-01-27T07:32:46;3.82;91.00
64961;SHT31;51487;52.266;10.542;2024-01-27T07:35:11;3.79;91.06
64961;SHT31;51487;52.266;10.542;2024-01-27T07:37:37;3.83;91.28
64961;SHT31;51487;52.266;10.542;2024-01-27T07:40:03;3.83;90.88
64961;SHT31;51487;52.266;10.542;2024-01-27T07:42:29;3.79;90.98
64961;SHT31;51487;52.266;10.542;2024-01-27T07:44:54;3.89;90.65
64961;SHT31;51487;52.266;10.542;2024-01-27T07:47:20;3.93;90.73
64961;SHT31;51487;52.266;10.542;2024-01-27T07:49:45;4.00;90.58
64961;SHT31;51487;52.266;10.542;2024-01-27T07:52:11;3.96;90.58
64961;SHT31;51487;52.266;10.542;2024-01-27T07:54:36;3.94;90.36
64961;SHT31;51487;52.266;10.542;2024-01-27T07:57:05;4.04;90.27
64961;SHT31;51487;52.266;10.542;2024-01-27T07:59:30;4.06;90.30
64961;SHT31;51487;52.266;10.542;2024-01-27T08:01:56;4.02;90.23
64961;SHT31;51487;52.266;10.542;2024-01-27T08:04:22;4.02;90.27
64961;SHT31;51487;52.266;10.542;2024-01-27T08:06:51;4.09;90.08
64961;SHT31;51487;52.266;10.542;2024-01-27T08:09:18;4.13;90.04
64961;SHT31;51487;52.266;10.542;2024-01-27T08:11:44;4.13;90.13
64961;SHT31;51487;52.266;10.542;2024-01-27T08:14:09;4.17;89.96
64961;SHT31;51487;52.266;10.542;2024-01-27T08:16:35;4.25;89.82
64961;SHT31;51487;52.266;10.542;2024-01-27T08:19:01;4.23;89.70
64961;SHT31;51487;52.266;10.542;2024-01-27T08:21:27;4.23;89.64
64961;SHT31;51487;52.266;10.542;2024-01-27T08:23:53;4.30;89.78
64961;SHT31;51487;52.266;10.542;2024-01-27T08:26:20;4.36;89.44
64961;SHT31;51487;52.266;10.542;2024-01-27T08:28:49;4.33;89.31
64961;SHT31;51487;52.266;10.542;2024-01-27T08:31:14;4.33;89.47
64961;SHT31;51487;52.266;10.542;2024-01-27T08:33:40;4.42;89.15
64961;SHT31;51487;52.266;10.542;2024-01-27T08:36:06;4.52;89.08
64961;SHT31;51487;52.266;10.542;2024-01-27T08:38:32;4.50;89.26
64961;SHT31;51487;52.266;10.542;2024-01-27T08:40:57;4.51;88.84
64961;SHT31;51487;52.266;10.542;2024-01-27T08:43:23;4.58;88.74
64961;SHT31;51487;52.266;10.542;2024-01-27T08:45:48;4.61;88.89
64961;SHT31;51487;52.266;10.542;2024-01-27T08:48:14;4.62;88.71
64961;SHT31;51487;52.266;10.542;2024-01-27T08:50:40;4.68;88.59
64961;SHT31;51487;52.266;10.542;2024-01-27T08:53:06;4.64;88.72
64961;SHT31;51487;52.266;10.542;2024-01-27T08:55:31;4.58;88.97
64961;SHT31;51487;52.266;10.542;2024-01-27T08:57:57;4.69;88.88
64961;SHT31;51487;52.266;10.542;2024-01-27T09:00:22;4.78;88.46
64961;SHT31;51487;52.266;10.542;2024-01-27T09:02:49;4.79;88.27
64961;SHT31;51487;52.266;10.542;2024-01-27T09:05:14;4.79;88.26
64961;SHT31;51487;52.266;10.542;2024-01-27T09:07:40;4.83;88.35
64961;SHT31;51487;52.266;10.542;2024-01-27T09:10:06;4.82;88.53
64961;SHT31;51487;52.266;10.542;2024-01-27T09:12:32;4.82;88.46
64961;SHT31;51487;52.266;10.542;2024-01-27T09:14:58;4.97;88.06
64961;SHT31;51487;52.266;10.542;2024-01-27T09:17:24;5.05;87.87
64961;SHT31;51487;52.266;10.542;2024-01-27T09:19:49;5.06;88.02
64961;SHT31;51487;52.266;10.542;2024-01-27T09:22:16;5.12;87.51
64961;SHT31;51487;52.266;10.542;2024-01-27T09:24:41;5.13;87.42
64961;SHT31;51487;52.266;10.542;2024-01-27T09:27:07;5.23;87.26
64961;SHT31;51487;52.266;10.542;2024-01-27T09:29:32;5.33;87.04
64961;SHT31;51487;52.266;10.542;2024-01-27T09:31:58;5.36;86.79
64961;SHT31;51487;52.266;10.542;2024-01-27T09:34:23;5.36;86.72
64961;SHT31;51487;52.266;10.542;2024-01-27T09:36:49;5.47;86.57
64961;SHT31;51487;52.266;10.542;2024-01-27T09:39:14;5.50;86.61
64961;SHT31;51487;52.266;10.542;2024-01-27T09:41:40;5.50;86.38
64961;SHT31;51487;52.266;10.542;2024-01-27T09:44:06;5.57;86.20
64961;SHT31;51487;52.266;10.542;2024-01-27T09:46:32;5.55;86.10
64961;SHT31;51487;52.266;10.542;2024-01-27T09:48:58;5.47;86.29
64961;SHT31;51487;52.266;10.542;2024-01-27T09:51:25;5.61;85.99
64961;SHT31;51487;52.266;10.542;2024-01-27T09:53:52;5.65;85.72
64961;SHT31;51487;52.266;10.542;2024-01-27T09:56:18;5.64;86.12
64961;SHT31;51487;52.266;10.542;2024-01-27T09:58:45;5.72;85.58
64961;SHT31;51487;52.266;10.542;2024-01-27T10:01:11;5.77;85.54
64961;SHT31;51487;52.266;10.542;2024-01-27T10:03:41;5.77;85.53
64961;SHT31;51487;52.266;10.542;2024-01-27T10:06:10;5.75;85.51
64961;SHT31;51487;52.266;10.542;2024-01-27T10:08:37;5.74;85.42
64961;SHT31;51487;52.266;10.542;2024-01-27T10:11:10;5.82;85.52
64961;SHT31;51487;52.266;10.542;2024-01-27T10:13:38;5.87;85.33
64961;SHT31;51487;52.266;10.542;2024-01-27T10:16:06;5.92;85.26
64961;SHT31;51487;52.266;10.542;2024-01-27T10:18:33;5.99;85.15
64961;SHT31;51487;52.266;10.542;2024-01-27T10:21:00;5.94;84.85
64961;SHT31;51487;52.266;10.542;2024-01-27T10:23:26;5.94;85.04
64961;SHT31;51487;52.266;10.542;2024-01-27T10:25:52;5.99;85.28
64961;SHT31;51487;52.266;10.542;2024-01-27T10:28:19;6.06;84.83
64961;SHT31;51487;52.266;10.542;2024-01-27T10:30:45;5.99;84.87
64961;SHT31;51487;52.266;10.542;2024-01-27T10:33:11;6.02;85.02
64961;SHT31;51487;52.266;10.542;2024-01-27T10:35:42;6.02;85.01
64961;SHT31;51487;52.266;10.542;2024-01-27T10:38:08;6.03;84.98
64961;SHT31;51487;52.266;10.542;2024-01-27T10:40:36;6.19;84.83
64961;SHT31;51487;52.266;10.542;2024-01-27T10:43:08;6.12;84.89
64961;SHT31;51487;52.266;10.542;2024-01-27T10:45:39;6.23;84.87
64961;SHT31;51487;52.266;10.542;2024-01-27T10:48:09;6.25;84.39
64961;SHT31;51487;52.266;10.542;2024-01-27T10:50:39;6.29;84.45
64961;SHT31;51487;52.266;10.542;2024-01-27T10:53:23;6.26;84.81
64961;SHT31;51487;52.266;10.542;2024-01-27T10:55:57;6.32;84.58
64961;SHT31;51487;52.266;10.542;2024-01-27T10:58:24;6.37;84.40
64961;SHT31;51487;52.266;10.542;2024-01-27T11:00:50;6.47;84.03
64961;SHT31;51487;52.266;10.542;2024-01-27T11:03:18;6.50;84.02
64961;SHT31;51487;52.266;10.542;2024-01-27T11:05:46;6.56;83.89
64961;SHT31;51487;52.266;10.542;2024-01-27T11:08:12;6.57;83.71
64961;SHT31;51487;52.266;10.542;2024-01-27T11:10:39;6.57;83.90
64961;SHT31;51487;52.266;10.542;2024-01-27T11:13:07;6.63;83.51
64961;SHT31;51487;52.266;10.542;2024-01-27T11:15:34;6.67;83.40
64961;SHT31;51487;52.266;10.542;2024-01-27T11:17:59;6.71;83.14
64961;SHT31;51487;52.266;10.542;2024-01-27T11:20:26;6.71;83.02
64961;SHT31;51487;52.266;10.542;2024-01-27T11:22:51;6.71;83.29
64961;SHT31;51487;52.266;10.542;2024-01-27T11:25:18;6.70;83.53
64961;SHT31;51487;52.266;10.542;2024-01-27T11:27:47;6.71;83.62
64961;SHT31;51487;52.266;10.542;2024-01-27T11:30:31;6.91;83.08
64961;SHT31;51487;52.266;10.542;2024-01-27T11:33:01;6.89;83.27
64961;SHT31;51487;52.266;10.542;2024-01-27T11:35:28;6.92;82.55
64961;SHT31;51487;52.266;10.542;2024-01-27T11:37:54;6.89;82.60
64961;SHT31;51487;52.266;10.542;2024-01-27T11:40:20;6.87;82.74
64961;SHT31;51487;52.266;10.542;2024-01-27T11:43:01;6.94;82.91
64961;SHT31;51487;52.266;10.542;2024-01-27T11:45:28;6.94;82.78
64961;SHT31;51487;52.266;10.542;2024-01-27T11:47:57;6.99;82.89
64961;SHT31;51487;52.266;10.542;2024-01-27T11:50:25;6.99;82.72
64961;SHT31;51487;52.266;10.542;2024-01-27T11:52:50;6.98;82.64
64961;SHT31;51487;52.266;10.542;2024-01-27T11:55:16;7.07;82.21
64961;SHT31;51487;52.266;10.542;2024-01-27T11:57:44;6.99;82.65
64961;SHT31;51487;52.266;10.542;2024-01-27T12:00:10;7.08;82.48
64961;SHT31;51487;52.266;10.542;2024-01-27T12:02:37;6.97;82.72
64961;SHT31;51487;52.266;10.542;2024-01-27T12:05:08;7.01;82.43
64961;SHT31;51487;52.266;10.542;2024-01-27T12:07:34;7.08;82.33
64961;SHT31;51487;52.266;10.542;2024-01-27T12:10:00;7.11;81.92
64961;SHT31;51487;52.266;10.542;2024-01-27T12:12:25;7.14;81.70
64961;SHT31;51487;52.266;10.542;2024-01-27T12:14:51;7.23;81.28
64961;SHT31;51487;52.266;10.542;2024-01-27T12:17:20;7.26;81.27
64961;SHT31;51487;52.266;10.542;2024-01-27T12:19:51;7.28;81.00
64961;SHT31;51487;52.266;10.542;2024-01-27T12:22:28;7.32;81.15
64961;SHT31;51487;52.266;10.542;2024-01-27T12:24:55;7.40;81.28
64961;SHT31;51487;52.266;10.542;2024-01-27T12:27:23;7.40;80.52
64961;SHT31;51487;52.266;10.542;2024-01-27T12:29:49;7.28;80.69
64961;SHT31;51487;52.266;10.542;2024-01-27T12:32:17;7.19;80.99
64961;SHT31;51487;52.266;10.542;2024-01-27T12:34:43;7.28;80.83
64961;SHT31;51487;52.266;10.542;2024-01-27T12:37:12;7.28;80.31
64961;SHT31;51487;52.266;10.542;2024-01-27T12:39:42;7.20;80.38
64961;SHT31;51487;52.266;10.542;2024-01-27T12:42:08;7.28;80.44
64961;SHT31;51487;52.266;10.542;2024-01-27T12:44:34;7.32;80.69
64961;SHT31;51487;52.266;10.542;2024-01-27T12:47:00;7.32;80.56
64961;SHT31;51487;52.266;10.542;2024-01-27T12:49:26;7.22;81.14
64961;SHT31;51487;52.266;10.542;2024-01-27T12:51:52;7.26;81.24
64961;SHT31;51487;52.266;10.542;2024-01-27T12:54:18;7.33;80.81
64961;SHT31;51487;52.266;10.542;2024-01-27T12:56:44;7.32;80.78
64961;SHT31;51487;52.266;10.542;2024-01-27T12:59:10;7.30;80.96
64961;SHT31;51487;52.266;10.542;2024-01-27T13:01:35;7.30;81.37
64961;SHT31;51487;52.266;10.542;2024-01-27T13:04:02;7.30;81.48
64961;SHT31;51487;52.266;10.542;2024-01-27T13:06:28;7.40;81.42
64961;SHT31;51487;52.266;10.542;2024-01-27T13:08:53;7.39;81.49
64961;SHT31;51487;52.266;10.542;2024-01-27T13:11:20;7.39;81.65
64961;SHT31;51487;52.266;10.542;2024-01-27T13:13:46;7.40;81.91
64961;SHT31;51487;52.266;10.542;2024-01-27T13:16:11;7.46;81.95
64961;SHT31;51487;52.266;10.542;2024-01-27T13:18:37;7.52;81.82
64961;SHT31;51487;52.266;10.542;2024-01-27T13:21:03;7.55;81.72
64961;SHT31;51487;52.266;10.542;2024-01-27T13:23:32;7.57;82.06
64961;SHT31;51487;52.266;10.542;2024-01-27T13:25:58;7.57;80.29
64961;SHT31;51487;52.266;10.542;2024-01-27T13:28:23;7.52;79.61
64961;SHT31;51487;52.266;10.542;2024-01-27T13:30:49;7.56;79.11
64961;SHT31;51487;52.266;10.542;2024-01-27T13:33:16;7.53;79.40
64961;SHT31;51487;52.266;10.542;2024-01-27T13:35:41;7.56;79.49
64961;SHT31;51487;52.266;10.542;2024-01-27T13:38:16;7.60;78.98
64961;SHT31;51487;52.266;10.542;2024-01-27T13:40:45;7.53;79.40
64961;SHT31;51487;52.266;10.542;2024-01-27T13:43:11;7.60;79.37
64961;SHT31;51487;52.266;10.542;2024-01-27T13:45:36;7.62;79.53
64961;SHT31;51487;52.266;10.542;2024-01-27T13:48:02;7.52;79.70
64961;SHT31;51487;52.266;10.542;2024-01-27T13:50:28;7.62;79.66
64961;SHT31;51487;52.266;10.542;2024-01-27T13:52:56;7.66;79.62
64961;SHT31;51487;52.266;10.542;2024-01-27T13:55:22;7.55;79.94
64961;SHT31;51487;52.266;10.542;2024-01-27T13:57:48;7.57;80.02
64961;SHT31;51487;52.266;10.542;2024-01-27T14:00:14;7.59;80.02
64961;SHT31;51487;52.266;10.542;2024-01-27T14:02:42;7.52;80.21
64961;SHT31;51487;52.266;10.542;2024-01-27T14:05:08;7.57;80.18
64961;SHT31;51487;52.266;10.542;2024-01-27T14:07:34;7.47;80.43
64961;SHT31;51487;52.266;10.542;2024-01-27T14:10:01;7.49;80.31
64961;SHT31;51487;52.266;10.542;2024-01-27T14:12:27;7.55;80.46
64961;SHT31;51487;52.266;10.542;2024-01-27T14:14:53;7.52;80.68
64961;SHT31;51487;52.266;10.542;2024-01-27T14:17:18;7.52;80.76
64961;SHT31;51487;52.266;10.542;2024-01-27T14:19:49;7.47;80.71
64961;SHT31;51487;52.266;10.542;2024-01-27T14:22:14;7.47;80.67
64961;SHT31;51487;52.266;10.542;2024-01-27T14:24:40;7.40;80.76
64961;SHT31;51487;52.266;10.542;2024-01-27T14:27:08;7.45;80.73
64961;SHT31;51487;52.266;10.542;2024-01-27T14:29:33;7.46;80.95
64961;SHT31;51487;52.266;10.542;2024-01-27T14:32:00;7.39;80.91
64961;SHT31;51487;52.266;10.542;2024-01-27T14:34:26;7.33;81.02
64961;SHT31;51487;52.266;10.542;2024-01-27T14:36:54;7.43;80.96
64961;SHT31;51487;52.266;10.542;2024-01-27T14:39:20;7.36;81.07
64961;SHT31;51487;52.266;10.542;2024-01-27T14:41:46;7.43;81.10
64961;SHT31;51487;52.266;10.542;2024-01-27T14:44:12;7.30;81.69
64961;SHT31;51487;52.266;10.542;2024-01-27T14:46:37;7.29;81.75
64961;SHT31;51487;52.266;10.542;2024-01-27T14:49:07;7.35;81.65
64961;SHT31;51487;52.266;10.542;2024-01-27T14:51:34;7.32;81.52
64961;SHT31;51487;52.266;10.542;2024-01-27T14:54:03;7.28;81.84
64961;SHT31;51487;52.266;10.542;2024-01-27T14:56:32;7.29;82.01
64961;SHT31;51487;52.266;10.542;2024-01-27T14:58:59;7.25;82.27
64961;SHT31;51487;52.266;10.542;2024-01-27T15:01:24;7.29;82.22
64961;SHT31;51487;52.266;10.542;2024-01-27T15:03:50;7.26;82.36
64961;SHT31;51487;52.266;10.542;2024-01-27T15:06:16;7.25;82.46
64961;SHT31;51487;52.266;10.542;2024-01-27T15:08:41;7.22;82.45
64961;SHT31;51487;52.266;10.542;2024-01-27T15:11:09;7.23;82.40
64961;SHT31;51487;52.266;10.542;2024-01-27T15:13:37;7.19;82.60
64961;SHT31;51487;52.266;10.542;2024-01-27T15:16:03;7.08;82.91
64961;SHT31;51487;52.266;10.542;2024-01-27T15:18:29;7.16;82.87
64961;SHT31;51487;52.266;10.542;2024-01-27T15:21:00;7.12;82.98
64961;SHT31;51487;52.266;10.542;2024-01-27T15:23:25;7.11;83.01
64961;SHT31;51487;52.266;10.542;2024-01-27T15:25:53;6.99;83.28